Time;durP1;ratioP1;P1;durP2;ratioP2;P2;SDS_P1;SDS_P2;PMS_P1;PMS_P2;Temp;Humidity;BMP_temperature;BMP_pressure;BME280_temperature;BME280_humidity;BME280_pressure;Samples;Min_cycle;Max_cycle;Signal;HPM_P1;HPM_P2
2023/03/31 00:00:32;;;;;;;9.87;2.70;;;11.50;99.90;;;;;;4981527;28;20216;-77
2023/03/31 00:02:58;;;;;;;27.03;11.47;;;11.60;99.90;;;;;;4978014;28;20222;-78
2023/03/31 00:05:26;;;;;;;7.67;3.60;;;11.50;99.90;;;;;;4981554;28;20240;-78
2023/03/31 00:08:02;;;;;;;6.53;2.07;;;11.50;99.90;;;;;;4979708;28;20210;-78
2023/03/31 00:10:32;;;;;;;6.27;2.37;;;11.50;99.90;;;;;;4986319;28;20201;-77
2023/03/31 00:12:58;;;;;;;4.97;2.27;;;11.50;99.90;;;;;;4982570;28;20174;-76
2023/03/31 00:15:24;;;;;;;8.10;3.33;;;11.50;99.90;;;;;;4976956;28;20589;-76
2023/03/31 00:17:50;;;;;;;10.20;3.90;;;11.60;99.90;;;;;;4976913;28;20213;-77
2023/03/31 00:20:16;;;;;;;5.97;2.10;;;11.60;99.90;;;;;;4976074;28;20214;-77
2023/03/31 00:22:45;;;;;;;7.47;2.00;;;11.50;99.90;;;;;;4974023;28;20652;-74
2023/03/31 00:25:15;;;;;;;7.30;2.10;;;11.60;99.90;;;;;;4975057;28;20676;-76
2023/03/31 00:27:45;;;;;;;10.90;4.27;;;11.50;99.90;;;;;;4983680;28;20197;-77
2023/03/31 00:30:12;;;;;;;4.93;1.90;;;11.60;99.90;;;;;;4982616;28;20231;-77
2023/03/31 00:32:38;;;;;;;7.50;2.40;;;11.50;99.90;;;;;;4976398;28;20287;-75
2023/03/31 00:35:04;;;;;;;7.67;2.20;;;11.60;99.90;;;;;;4978665;28;20284;-77
2023/03/31 00:37:32;;;;;;;5.83;2.10;;;11.60;99.90;;;;;;4981144;28;20761;-76
2023/03/31 00:39:58;;;;;;;3.93;1.50;;;11.50;99.90;;;;;;4979714;28;20174;-76
2023/03/31 00:42:24;;;;;;;5.53;1.70;;;11.60;99.90;;;;;;4978466;28;20256;-76
2023/03/31 00:45:18;;;;;;;6.30;1.97;;;11.60;99.90;;;;;;4977526;28;20202;-77
2023/03/31 00:48:02;;;;;;;6.27;1.60;;;11.50;99.90;;;;;;4973227;28;20206;-75
2023/03/31 00:50:40;;;;;;;8.43;2.07;;;11.50;99.90;;;;;;4974830;28;20715;-76
2023/03/31 00:53:20;;;;;;;6.47;2.07;;;11.50;99.90;;;;;;4974762;28;20233;-76
2023/03/31 00:55:54;;;;;;;5.30;1.87;;;11.50;99.90;;;;;;4980059;28;20210;-76
2023/03/31 00:58:27;;;;;;;5.37;1.77;;;11.50;99.90;;;;;;4974457;28;20186;-76
2023/03/31 01:00:55;;;;;;;4.33;2.20;;;11.50;99.90;;;;;;4971232;28;20238;-77
2023/03/31 01:03:22;;;;;;;4.57;1.80;;;11.50;99.90;;;;;;4977231;28;20293;-75
2023/03/31 01:05:49;;;;;;;6.10;2.00;;;11.50;99.90;;;;;;4981044;28;20219;-77
2023/03/31 01:08:16;;;;;;;5.33;2.30;;;11.50;99.90;;;;;;4982294;28;20388;-77
2023/03/31 01:10:53;;;;;;;4.40;1.80;;;11.40;99.90;;;;;;4996722;28;20215;-77
2023/03/31 01:13:20;;;;;;;3.47;1.87;;;11.40;99.90;;;;;;4980654;28;20189;-77
2023/03/31 01:15:46;;;;;;;6.50;1.83;;;11.30;99.90;;;;;;4978670;28;20224;-76
2023/03/31 01:18:14;;;;;;;4.40;1.70;;;11.30;99.90;;;;;;4979567;28;20285;-76
2023/03/31 01:21:18;;;;;;;5.03;1.77;;;11.20;99.90;;;;;;4978484;28;20209;-77
2023/03/31 01:24:22;;;;;;;6.03;2.00;;;11.20;99.90;;;;;;4972465;28;20621;-75
2023/03/31 01:27:03;;;;;;;3.40;1.40;;;11.10;99.90;;;;;;4971949;28;20217;-77
2023/03/31 01:30:06;;;;;;;3.23;1.73;;;11.20;99.90;;;;;;4976999;28;20216;-76
2023/03/31 01:32:50;;;;;;;5.37;2.00;;;11.10;99.90;;;;;;4973451;28;20201;-77
2023/03/31 01:35:42;;;;;;;7.10;1.80;;;11.10;99.90;;;;;;4972379;28;20238;-77
2023/03/31 01:38:31;;;;;;;3.40;1.43;;;11.00;99.90;;;;;;4987175;28;20228;-76
2023/03/31 01:41:34;;;;;;;3.50;1.47;;;11.00;99.90;;;;;;4972858;28;20308;-76
2023/03/31 01:44:15;;;;;;;6.60;1.40;;;11.00;99.90;;;;;;4979885;28;20225;-76
2023/03/31 01:46:52;;;;;;;5.90;1.87;;;11.00;99.90;;;;;;4997578;28;20353;-77
2023/03/31 01:49:29;;;;;;;4.00;1.60;;;11.00;99.90;;;;;;4980310;28;20190;-77
2023/03/31 01:52:11;;;;;;;6.93;2.00;;;11.00;99.90;;;;;;4975028;28;20281;-76
2023/03/31 01:54:53;;;;;;;5.00;1.80;;;11.00;99.90;;;;;;4975845;28;20209;-76
2023/03/31 01:57:23;;;;;;;4.20;1.57;;;11.00;99.90;;;;;;4974141;28;20684;-77
2023/03/31 01:59:54;;;;;;;4.70;1.60;;;11.00;99.90;;;;;;4975888;28;20612;-77
2023/03/31 02:02:28;;;;;;;4.90;1.97;;;11.00;99.90;;;;;;4975412;28;20221;-77
2023/03/31 02:05:09;;;;;;;5.57;1.43;;;11.00;99.90;;;;;;4970309;28;20214;-76
2023/03/31 02:07:43;;;;;;;6.07;1.40;;;11.00;99.90;;;;;;4975455;28;20255;-76
2023/03/31 02:10:11;;;;;;;4.63;1.30;;;11.00;99.90;;;;;;4973982;28;20186;-74
2023/03/31 02:12:41;;;;;;;4.90;1.57;;;11.00;99.90;;;;;;4973432;28;20310;-78
2023/03/31 02:15:11;;;;;;;7.20;1.53;;;11.00;99.90;;;;;;4972812;28;20202;-74
2023/03/31 02:17:40;;;;;;;3.97;1.53;;;11.00;99.90;;;;;;4969701;28;20234;-76
2023/03/31 02:20:14;;;;;;;7.67;1.80;;;11.00;99.90;;;;;;4960841;28;20234;-75
2023/03/31 02:22:45;;;;;;;4.37;1.70;;;11.00;99.90;;;;;;4969753;28;20875;-77
2023/03/31 02:25:14;;;;;;;3.80;1.50;;;10.90;99.90;;;;;;4980418;28;20178;-76
2023/03/31 02:27:48;;;;;;;4.90;1.70;;;11.00;99.90;;;;;;4980373;28;20210;-76
2023/03/31 02:30:14;;;;;;;5.37;1.30;;;11.00;99.90;;;;;;4979464;28;20206;-75
2023/03/31 02:32:43;;;;;;;3.83;1.30;;;11.00;99.90;;;;;;4976873;28;20197;-76
2023/03/31 02:35:15;;;;;;;5.47;1.93;;;11.00;99.90;;;;;;4976177;28;20225;-77
2023/03/31 02:37:43;;;;;;;2.10;1.53;;;11.00;99.90;;;;;;4977073;28;20233;-76
2023/03/31 02:40:16;;;;;;;6.10;1.67;;;11.00;99.90;;;;;;4975934;28;20174;-76
2023/03/31 02:42:42;;;;;;;2.53;1.43;;;11.00;99.90;;;;;;4969439;28;20288;-75
2023/03/31 02:45:36;;;;;;;5.10;1.80;;;11.00;99.90;;;;;;4969596;28;20269;-76
2023/03/31 02:48:02;;;;;;;5.60;1.40;;;11.10;99.90;;;;;;4985760;28;20202;-76
2023/03/31 02:50:41;;;;;;;4.77;1.50;;;11.10;99.90;;;;;;4980622;28;20244;-77
2023/03/31 02:53:45;;;;;;;3.87;1.53;;;11.10;99.90;;;;;;4971212;28;20220;-77
2023/03/31 02:56:16;;;;;;;3.77;1.40;;;11.10;99.90;;;;;;4969620;28;20336;-75
2023/03/31 02:58:45;;;;;;;4.70;1.20;;;11.10;99.90;;;;;;4970923;28;20353;-76
2023/03/31 03:01:42;;;;;;;4.80;1.43;;;11.10;99.90;;;;;;4975716;28;20681;-74
2023/03/31 03:04:38;;;;;;;4.97;1.67;;;11.10;99.90;;;;;;4972991;28;20221;-77
2023/03/31 03:07:18;;;;;;;5.57;1.63;;;11.00;99.90;;;;;;4972272;28;20214;-76
2023/03/31 03:09:49;;;;;;;2.57;1.50;;;11.00;99.90;;;;;;4973892;28;20222;-74
2023/03/31 03:12:24;;;;;;;4.63;1.30;;;11.10;99.90;;;;;;4975479;28;20209;-76
2023/03/31 03:15:09;;;;;;;4.30;1.40;;;11.10;99.90;;;;;;4977741;28;20198;-76
2023/03/31 03:17:46;;;;;;;4.90;1.10;;;11.10;99.90;;;;;;4975143;28;20230;-76
2023/03/31 03:20:14;;;;;;;2.47;1.03;;;11.10;99.90;;;;;;4975768;28;20709;-74
2023/03/31 03:22:41;;;;;;;6.20;1.40;;;11.10;99.90;;;;;;4975331;28;20221;-75
2023/03/31 03:25:10;;;;;;;3.70;1.23;;;11.10;99.90;;;;;;4974549;28;20789;-76
2023/03/31 03:27:36;;;;;;;5.37;1.37;;;11.10;99.90;;;;;;4973577;28;20210;-77
2023/03/31 03:30:05;;;;;;;4.53;1.30;;;11.10;99.90;;;;;;4975195;28;20293;-76
2023/03/31 03:32:32;;;;;;;2.53;1.13;;;11.10;99.90;;;;;;4975121;28;20215;-76
2023/03/31 03:34:59;;;;;;;5.07;1.43;;;11.20;99.90;;;;;;4974670;28;20454;-77
2023/03/31 03:37:24;;;;;;;5.40;1.57;;;11.20;99.90;;;;;;4983545;28;20186;-77
2023/03/31 03:39:50;;;;;;;2.53;1.20;;;11.20;99.90;;;;;;4975900;28;20279;-77
2023/03/31 03:42:15;;;;;;;2.63;1.33;;;11.10;99.90;;;;;;4974949;28;20301;-76
2023/03/31 03:44:41;;;;;;;5.60;1.27;;;11.10;99.90;;;;;;4976186;28;20228;-77
2023/03/31 03:47:07;;;;;;;5.97;1.63;;;11.10;99.90;;;;;;4978495;28;20277;-76
2023/03/31 03:49:32;;;;;;;5.57;1.30;;;11.10;99.90;;;;;;4974287;28;20193;-77
2023/03/31 03:51:58;;;;;;;3.73;1.43;;;11.10;99.90;;;;;;4975249;28;20274;-76
2023/03/31 03:54:24;;;;;;;5.53;1.67;;;11.10;99.90;;;;;;4977241;28;20429;-77
2023/03/31 03:56:49;;;;;;;2.80;1.00;;;11.10;99.90;;;;;;4974450;28;20207;-76
2023/03/31 03:59:15;;;;;;;5.60;1.50;;;11.10;99.90;;;;;;4972302;28;20402;-76
2023/03/31 04:01:41;;;;;;;5.57;1.43;;;11.10;99.90;;;;;;4972794;28;20226;-76
2023/03/31 04:04:07;;;;;;;6.50;1.77;;;11.10;99.90;;;;;;4974506;28;20170;-76
2023/03/31 04:06:33;;;;;;;5.03;1.13;;;11.10;99.90;;;;;;4975096;28;20321;-76
2023/03/31 04:08:59;;;;;;;3.47;1.30;;;11.10;99.90;;;;;;4975073;28;20264;-75
2023/03/31 04:11:25;;;;;;;2.77;1.30;;;11.10;99.90;;;;;;4974584;28;20214;-75
2023/03/31 04:13:50;;;;;;;3.40;1.43;;;11.10;99.90;;;;;;4973410;28;20241;-76
2023/03/31 04:16:16;;;;;;;3.77;1.87;;;11.10;99.90;;;;;;4974683;28;20277;-75
2023/03/31 04:18:47;;;;;;;5.07;1.40;;;11.10;99.90;;;;;;4972992;28;20217;-77
2023/03/31 04:21:21;;;;;;;8.23;1.57;;;11.10;99.90;;;;;;4970603;28;20210;-76
2023/03/31 04:23:57;;;;;;;4.03;1.40;;;11.10;99.90;;;;;;4974868;28;20203;-76
2023/03/31 04:26:29;;;;;;;5.73;1.67;;;11.10;99.90;;;;;;4972877;28;20210;-77
2023/03/31 04:28:59;;;;;;;7.73;1.40;;;11.10;99.90;;;;;;4973949;28;20575;-76
2023/03/31 04:31:25;;;;;;;3.93;1.33;;;11.10;99.90;;;;;;4975121;28;20225;-76
2023/03/31 04:33:52;;;;;;;2.03;1.10;;;11.10;99.90;;;;;;4975602;28;20546;-76
2023/03/31 04:36:18;;;;;;;4.77;1.57;;;11.00;99.90;;;;;;4973479;28;20214;-76
2023/03/31 04:38:46;;;;;;;6.50;1.77;;;11.10;99.90;;;;;;4974002;28;20217;-76
2023/03/31 04:41:13;;;;;;;3.87;1.27;;;11.10;99.90;;;;;;4972031;28;20218;-75
2023/03/31 04:43:39;;;;;;;4.67;1.40;;;11.00;99.90;;;;;;4973082;28;20181;-76
2023/03/31 04:46:04;;;;;;;4.27;1.63;;;11.00;99.90;;;;;;4974146;28;20564;-76
2023/03/31 04:48:30;;;;;;;4.45;1.60;;;11.10;99.90;;;;;;4974820;28;20418;-77
2023/03/31 04:50:55;;;;;;;8.10;1.87;;;11.00;99.90;;;;;;4973735;28;20217;-76
2023/03/31 04:53:21;;;;;;;6.33;1.67;;;11.00;99.90;;;;;;4974271;28;20252;-76
2023/03/31 04:55:48;;;;;;;4.97;1.50;;;11.10;99.90;;;;;;4972701;28;20218;-76
2023/03/31 04:58:14;;;;;;;5.63;1.43;;;11.00;99.90;;;;;;4974673;28;20194;-77
2023/03/31 05:00:40;;;;;;;7.57;2.33;;;11.10;99.90;;;;;;4972500;28;20716;-77
2023/03/31 05:03:05;;;;;;;4.47;1.53;;;11.10;99.90;;;;;;4975569;28;20211;-77
2023/03/31 05:05:31;;;;;;;2.40;1.10;;;11.00;99.90;;;;;;4981171;28;20218;-77
2023/03/31 05:07:57;;;;;;;3.67;1.50;;;11.00;99.90;;;;;;4980769;28;20213;-76
2023/03/31 05:10:23;;;;;;;6.23;1.80;;;11.00;99.90;;;;;;4979096;28;20521;-77
2023/03/31 05:12:48;;;;;;;3.37;1.13;;;11.10;99.90;;;;;;4978858;28;20181;-77
2023/03/31 05:15:14;;;;;;;5.40;1.47;;;11.10;99.90;;;;;;4979292;28;20319;-77
2023/03/31 05:17:39;;;;;;;3.33;1.23;;;11.10;99.90;;;;;;4977235;28;20212;-77
2023/03/31 05:20:07;;;;;;;4.80;2.10;;;11.10;99.90;;;;;;4979276;28;20197;-77
2023/03/31 05:22:37;;;;;;;6.63;1.97;;;11.10;99.90;;;;;;4976522;28;20190;-77
2023/03/31 05:25:05;;;;;;;5.63;1.77;;;11.10;99.90;;;;;;4976150;28;20178;-77
2023/03/31 05:27:31;;;;;;;5.77;1.80;;;11.10;99.90;;;;;;4985741;28;20206;-77
2023/03/31 05:29:57;;;;;;;3.80;1.73;;;11.10;99.90;;;;;;4974672;28;20696;-77
2023/03/31 05:32:24;;;;;;;3.73;1.33;;;11.20;99.90;;;;;;4981172;28;20207;-77
2023/03/31 05:34:51;;;;;;;4.80;1.80;;;11.30;99.90;;;;;;4977547;28;20679;-77
2023/03/31 05:37:18;;;;;;;6.23;1.40;;;11.50;99.90;;;;;;4980899;28;20182;-77
2023/03/31 05:39:44;;;;;;;4.17;1.17;;;12.10;99.90;;;;;;4973080;28;20202;-78
2023/03/31 05:42:10;;;;;;;4.22;1.20;;;12.90;99.90;;;;;;4979976;28;20214;-76
2023/03/31 05:44:35;;;;;;;8.45;1.42;;;14.00;99.90;;;;;;4976600;28;20221;-76
2023/03/31 05:47:01;;;;;;;4.78;1.67;;;14.40;99.90;;;;;;4993717;28;20626;-77
2023/03/31 05:49:27;;;;;;;4.82;1.45;;;14.90;99.90;;;;;;4978813;28;20224;-77
2023/03/31 05:51:52;;;;;;;3.13;1.30;;;15.30;99.90;;;;;;4977139;28;20658;-77
2023/03/31 05:54:18;;;;;;;4.28;1.50;;;15.50;99.90;;;;;;4976127;28;20242;-76
2023/03/31 05:56:44;;;;;;;5.93;1.65;;;15.30;99.90;;;;;;4975355;28;20208;-76
2023/03/31 05:59:09;;;;;;;4.88;1.55;;;14.80;99.90;;;;;;4978541;28;20224;-77
2023/03/31 06:01:35;;;;;;;3.67;1.30;;;14.30;99.90;;;;;;4979674;28;20198;-77
2023/03/31 06:04:01;;;;;;;4.38;1.60;;;14.20;99.90;;;;;;4975259;28;20602;-76
2023/03/31 06:06:26;;;;;;;6.78;1.50;;;14.40;99.90;;;;;;4974194;28;20210;-77
2023/03/31 06:08:52;;;;;;;3.83;1.73;;;14.20;99.90;;;;;;4973848;28;20206;-77
2023/03/31 06:11:20;;;;;;;4.07;1.52;;;13.30;99.90;;;;;;4969874;28;20202;-77
2023/03/31 06:13:46;;;;;;;6.50;1.70;;;13.00;99.90;;;;;;4980051;28;20313;-76
2023/03/31 06:16:13;;;;;;;4.47;1.50;;;12.70;99.90;;;;;;4980994;28;20191;-78
2023/03/31 06:18:39;;;;;;;4.95;1.88;;;12.70;99.90;;;;;;4981023;28;20203;-77
2023/03/31 06:21:06;;;;;;;5.05;1.75;;;12.90;99.90;;;;;;4982484;28;20214;-76
2023/03/31 06:23:33;;;;;;;3.70;1.45;;;13.70;99.90;;;;;;4978562;28;20237;-77
2023/03/31 06:26:02;;;;;;;4.35;1.50;;;14.90;99.90;;;;;;4976321;28;20201;-78
2023/03/31 06:28:28;;;;;;;3.45;1.70;;;16.00;99.90;;;;;;4977850;28;20178;-77
2023/03/31 06:31:07;;;;;;;9.52;1.77;;;16.80;99.90;;;;;;4980175;28;20582;-78
2023/03/31 06:33:33;;;;;;;4.38;1.77;;;17.10;99.90;;;;;;4978068;28;20229;-78
2023/03/31 06:36:00;;;;;;;5.72;1.90;;;16.60;99.90;;;;;;4979274;28;20237;-79
2023/03/31 06:38:27;;;;;;;4.95;1.58;;;16.50;99.90;;;;;;4979434;28;20206;-77
2023/03/31 06:40:52;;;;;;;4.65;1.33;;;16.90;99.90;;;;;;4978996;28;20222;-78
2023/03/31 06:43:19;;;;;;;3.53;1.90;;;17.20;99.90;;;;;;4977583;28;20198;-77
2023/03/31 06:45:45;;;;;;;6.50;1.95;;;18.40;99.90;;;;;;4977695;28;20292;-77
2023/03/31 06:48:11;;;;;;;3.40;1.65;;;19.30;99.90;;;;;;4975810;28;20230;-78
2023/03/31 06:50:38;;;;;;;7.80;2.97;;;19.60;99.90;;;;;;4977976;28;20293;-78
2023/03/31 06:53:04;;;;;;;4.60;1.60;;;20.20;99.90;;;;;;4985657;28;20197;-77
2023/03/31 06:55:30;;;;;;;2.90;1.73;;;20.60;99.90;;;;;;4982302;28;20190;-79
2023/03/31 06:57:55;;;;;;;3.47;1.80;;;20.10;99.90;;;;;;4983960;28;20174;-78
2023/03/31 07:00:21;;;;;;;8.95;2.10;;;20.60;99.90;;;;;;4977681;28;20201;-78
2023/03/31 07:02:47;;;;;;;6.03;1.90;;;19.60;99.90;;;;;;4980526;28;20198;-78
2023/03/31 07:05:12;;;;;;;3.45;1.40;;;20.60;99.90;;;;;;4979993;28;20210;-80
2023/03/31 07:07:38;;;;;;;5.75;2.03;;;21.20;99.90;;;;;;4981538;28;20175;-77
2023/03/31 07:10:04;;;;;;;4.90;1.88;;;20.60;99.90;;;;;;4980182;28;20187;-78
2023/03/31 07:12:32;;;;;;;5.35;1.95;;;19.70;99.90;;;;;;4978478;28;20206;-79
2023/03/31 07:14:58;;;;;;;11.75;2.38;;;19.10;99.90;;;;;;4979324;28;20673;-78
2023/03/31 07:17:24;;;;;;;6.25;2.00;;;18.30;99.90;;;;;;4976716;28;20331;-78
2023/03/31 07:19:50;;;;;;;4.20;1.85;;;19.30;99.90;;;;;;4977680;28;20691;-78
2023/03/31 07:22:15;;;;;;;5.68;2.03;;;18.80;99.90;;;;;;4977726;28;20214;-78
2023/03/31 07:24:41;;;;;;;5.93;1.75;;;18.30;99.90;;;;;;4977235;28;20233;-78
2023/03/31 07:27:07;;;;;;;5.93;2.03;;;18.70;99.90;;;;;;4974317;28;20277;-78
2023/03/31 07:29:32;;;;;;;4.22;1.70;;;18.30;99.90;;;;;;4975038;28;20549;-78
2023/03/31 07:31:58;;;;;;;5.45;2.08;;;18.30;99.90;;;;;;4978694;28;20205;-78
2023/03/31 07:34:24;;;;;;;5.78;1.83;;;17.80;99.90;;;;;;4982106;28;20197;-78
2023/03/31 07:36:50;;;;;;;5.50;1.80;;;17.50;99.90;;;;;;4984912;28;20798;-78
2023/03/31 07:39:16;;;;;;;3.95;1.77;;;16.80;99.90;;;;;;4981727;28;20250;-78
2023/03/31 07:41:41;;;;;;;5.63;2.00;;;16.60;99.90;;;;;;4980578;28;20214;-78
2023/03/31 07:44:07;;;;;;;5.50;1.40;;;16.70;99.90;;;;;;4984091;28;20210;-78
2023/03/31 07:46:32;;;;;;;5.15;1.77;;;17.10;99.90;;;;;;4979250;28;20264;-78
2023/03/31 07:49:01;;;;;;;5.38;1.77;;;18.00;99.90;;;;;;4980629;28;20181;-78
2023/03/31 07:51:26;;;;;;;5.72;1.73;;;18.80;99.90;;;;;;4981785;28;20264;-77
2023/03/31 07:53:52;;;;;;;10.50;2.25;;;20.50;99.90;;;;;;4973224;28;20201;-78
2023/03/31 07:56:20;;;;;;;4.72;1.95;;;21.80;99.90;;;;;;4983888;28;20217;-78
2023/03/31 07:58:46;;;;;;;5.57;1.85;;;22.30;99.90;;;;;;4982108;28;20268;-77
2023/03/31 08:01:16;;;;;;;4.75;2.05;;;20.70;99.90;;;;;;4974993;28;20198;-78
2023/03/31 08:03:43;;;;;;;4.70;1.50;;;19.70;99.90;;;;;;4972095;28;20545;-78
2023/03/31 08:06:09;;;;;;;4.57;1.67;;;19.10;99.90;;;;;;4973275;28;20285;-78
2023/03/31 08:08:37;;;;;;;5.43;1.60;;;18.50;99.90;;;;;;4975077;28;20330;-78
2023/03/31 08:11:03;;;;;;;4.13;1.50;;;18.40;99.90;;;;;;4998910;28;20198;-78
2023/03/31 08:13:29;;;;;;;5.82;1.92;;;17.80;99.90;;;;;;4983355;28;20186;-76
2023/03/31 08:15:55;;;;;;;3.17;1.42;;;17.30;99.90;;;;;;4983859;28;20194;-77
2023/03/31 08:18:21;;;;;;;3.80;1.17;;;17.40;99.90;;;;;;4984956;28;20212;-77
2023/03/31 08:20:48;;;;;;;4.28;1.55;;;17.40;99.90;;;;;;4978626;28;20214;-78
2023/03/31 08:23:14;;;;;;;5.78;1.75;;;17.20;99.90;;;;;;4973517;28;20252;-78
2023/03/31 08:25:40;;;;;;;5.45;2.05;;;16.90;99.90;;;;;;4978904;28;20272;-78
2023/03/31 08:28:09;;;;;;;5.85;1.77;;;16.90;99.90;;;;;;4980090;28;20174;-77
2023/03/31 08:30:37;;;;;;;2.90;1.33;;;17.40;99.90;;;;;;4977246;28;20233;-78
2023/03/31 08:33:03;;;;;;;3.83;1.48;;;17.30;99.90;;;;;;4976008;28;20581;-77
2023/03/31 08:35:29;;;;;;;6.57;1.92;;;17.30;99.90;;;;;;4979151;28;20214;-78
2023/03/31 08:37:54;;;;;;;7.35;2.10;;;17.40;99.90;;;;;;4976195;28;20209;-77
2023/03/31 08:40:24;;;;;;;5.57;1.70;;;17.50;99.90;;;;;;4974658;28;20226;-78
2023/03/31 08:43:01;;;;;;;3.53;1.23;;;17.50;99.90;;;;;;4972595;28;20210;-77
2023/03/31 08:45:33;;;;;;;4.80;1.52;;;17.70;99.90;;;;;;4969228;28;20236;-77
2023/03/31 08:48:07;;;;;;;3.55;1.67;;;17.70;99.90;;;;;;4980423;28;20202;-78
2023/03/31 08:50:39;;;;;;;5.20;1.80;;;17.70;99.90;;;;;;4982856;28;20203;-76
2023/03/31 08:53:06;;;;;;;4.18;1.50;;;17.50;99.90;;;;;;4981136;28;20210;-77
2023/03/31 08:55:51;;;;;;;4.95;1.70;;;17.00;99.90;;;;;;4976733;28;20241;-75
2023/03/31 08:58:35;;;;;;;5.07;1.95;;;16.60;99.90;;;;;;4977600;28;20249;-78
2023/03/31 09:01:20;;;;;;;4.88;1.77;;;16.40;99.90;;;;;;4971537;28;20566;-77
2023/03/31 09:04:10;;;;;;;5.97;1.73;;;16.50;99.90;;;;;;4975295;28;20195;-76
2023/03/31 09:07:01;;;;;;;4.25;1.52;;;16.70;99.90;;;;;;4975689;28;20284;-77
2023/03/31 09:09:29;;;;;;;5.40;2.25;;;16.70;99.90;;;;;;4973665;28;20205;-77
2023/03/31 09:12:00;;;;;;;7.15;1.58;;;16.90;99.90;;;;;;4982704;28;20240;-78
2023/03/31 09:14:32;;;;;;;10.43;1.92;;;17.40;99.90;;;;;;4973229;28;20198;-77
2023/03/31 09:17:26;;;;;;;5.72;2.03;;;18.00;99.90;;;;;;4966896;28;20210;-78
2023/03/31 09:20:02;;;;;;;3.83;1.95;;;18.30;99.90;;;;;;4977352;28;20209;-78
2023/03/31 09:22:33;;;;;;;4.35;1.60;;;18.50;99.90;;;;;;4974766;28;20598;-78
2023/03/31 09:25:21;;;;;;;3.05;1.52;;;18.80;99.90;;;;;;4968451;28;20587;-78
2023/03/31 09:27:49;;;;;;;6.35;1.50;;;18.80;99.90;;;;;;4996145;28;20692;-77
2023/03/31 09:30:19;;;;;;;6.38;1.55;;;18.00;99.90;;;;;;4976916;28;20228;-77
2023/03/31 09:32:47;;;;;;;5.03;1.67;;;18.10;99.90;;;;;;4974669;28;20208;-77
2023/03/31 09:35:20;;;;;;;4.03;1.60;;;17.90;99.90;;;;;;4978699;28;20224;-77
2023/03/31 09:37:47;;;;;;;6.03;1.75;;;18.10;99.90;;;;;;4978770;28;20202;-77
2023/03/31 09:40:31;;;;;;;4.30;1.67;;;18.00;99.90;;;;;;4977435;28;20174;-76
2023/03/31 09:43:22;;;;;;;5.68;1.90;;;18.00;99.90;;;;;;4984991;28;20227;-76
2023/03/31 09:45:48;;;;;;;5.22;2.08;;;17.70;99.90;;;;;;4976609;28;20230;-77
2023/03/31 09:48:18;;;;;;;4.57;1.90;;;17.50;99.90;;;;;;4976238;28;20626;-77
2023/03/31 09:51:02;;;;;;;4.18;1.70;;;17.30;99.90;;;;;;4974272;28;20261;-76
2023/03/31 09:53:39;;;;;;;5.03;2.03;;;16.80;99.90;;;;;;4974088;28;20213;-77
2023/03/31 09:56:07;;;;;;;6.60;1.48;;;16.40;99.90;;;;;;4976153;28;20458;-76
2023/03/31 09:58:45;;;;;;;4.45;1.63;;;16.30;99.90;;;;;;4973234;28;20256;-76
2023/03/31 10:01:12;;;;;;;6.90;2.00;;;16.10;99.90;;;;;;4971471;28;20190;-76
2023/03/31 10:03:53;;;;;;;7.75;1.60;;;15.90;99.90;;;;;;4971149;28;20210;-77
2023/03/31 10:06:20;;;;;;;5.82;2.08;;;15.70;99.90;;;;;;4982092;28;20271;-76
2023/03/31 10:09:01;;;;;;;5.93;1.80;;;15.70;99.90;;;;;;4984070;28;20644;-77
2023/03/31 10:11:27;;;;;;;4.93;1.70;;;15.40;99.90;;;;;;4988377;28;20680;-75
2023/03/31 10:14:05;;;;;;;3.05;1.38;;;15.30;99.90;;;;;;4988538;28;20212;-78
2023/03/31 10:16:51;;;;;;;6.80;1.67;;;15.30;99.90;;;;;;4992991;28;20256;-78
2023/03/31 10:19:22;;;;;;;6.07;1.20;;;15.20;99.90;;;;;;4981130;28;20171;-77
2023/03/31 10:21:59;;;;;;;3.88;1.35;;;15.10;99.90;;;;;;4979923;28;20210;-77
2023/03/31 10:24:35;;;;;;;4.22;1.42;;;15.20;99.90;;;;;;4992490;28;20268;-79
2023/03/31 10:27:01;;;;;;;6.95;1.92;;;15.20;99.90;;;;;;4980800;28;20202;-77
2023/03/31 10:29:33;;;;;;;5.90;2.17;;;15.30;99.90;;;;;;4986911;28;20257;-77
2023/03/31 10:32:18;;;;;;;3.40;1.85;;;15.60;99.90;;;;;;4976868;28;20774;-78
2023/03/31 10:34:45;;;;;;;3.92;1.40;;;15.90;99.90;;;;;;4978429;28;20229;-76
2023/03/31 10:37:16;;;;;;;4.57;2.28;;;16.00;99.90;;;;;;4978620;28;20209;-77
2023/03/31 10:39:44;;;;;;;4.18;1.95;;;16.20;99.90;;;;;;4977995;28;20203;-78
2023/03/31 10:42:10;;;;;;;3.95;1.58;;;16.10;99.90;;;;;;4975025;28;20244;-77
2023/03/31 10:44:38;;;;;;;2.88;1.60;;;16.00;99.90;;;;;;4982750;28;20230;-79
2023/03/31 10:47:14;;;;;;;4.05;1.20;;;16.10;99.90;;;;;;4983582;28;20210;-78
2023/03/31 10:49:42;;;;;;;3.85;1.48;;;16.00;99.90;;;;;;4985682;28;20217;-78
2023/03/31 10:52:21;;;;;;;3.25;1.08;;;16.00;99.90;;;;;;4987436;28;20184;-77
2023/03/31 10:54:49;;;;;;;4.05;1.27;;;15.80;99.90;;;;;;4987465;28;20282;-77
2023/03/31 10:57:16;;;;;;;3.28;1.20;;;15.60;99.90;;;;;;4993412;28;20595;-77
2023/03/31 10:59:58;;;;;;;4.38;2.67;;;15.50;99.90;;;;;;4979912;28;20520;-77
2023/03/31 11:02:35;;;;;;;3.92;1.50;;;15.70;99.90;;;;;;4973650;28;20245;-77
2023/03/31 11:05:24;;;;;;;4.55;1.83;;;15.90;99.90;;;;;;4985989;28;20225;-75
2023/03/31 11:07:58;;;;;;;2.25;1.02;;;16.20;99.90;;;;;;4979803;28;20222;-78
2023/03/31 11:10:27;;;;;;;3.42;1.30;;;16.30;99.90;;;;;;4980283;28;20188;-77
2023/03/31 11:13:11;;;;;;;3.45;1.33;;;16.20;99.90;;;;;;4982986;28;20285;-77
2023/03/31 11:15:44;;;;;;;3.17;1.10;;;16.20;99.90;;;;;;4973310;28;20233;-77
2023/03/31 11:18:22;;;;;;;5.57;1.80;;;16.20;99.90;;;;;;4969926;28;20207;-77
2023/03/31 11:21:09;;;;;;;4.35;1.33;;;16.10;99.90;;;;;;4975377;28;20502;-77
2023/03/31 11:23:57;;;;;;;2.92;1.45;;;16.30;99.90;;;;;;4983873;28;20210;-77
2023/03/31 11:26:32;;;;;;;3.42;1.52;;;16.30;99.90;;;;;;4979207;28;20224;-77
2023/03/31 11:29:02;;;;;;;3.75;1.38;;;16.40;99.90;;;;;;4985796;28;20202;-75
2023/03/31 11:32:05;;;;;;;6.72;1.52;;;16.40;99.90;;;;;;4975577;28;20182;-78
2023/03/31 11:35:04;;;;;;;7.10;2.05;;;16.70;99.90;;;;;;4975827;28;20181;-78
2023/03/31 11:37:41;;;;;;;5.35;1.92;;;16.50;99.90;;;;;;4990474;28;20202;-78
2023/03/31 11:40:58;;;;;;;4.75;1.50;;;16.60;99.90;;;;;;4978360;28;20204;-79
2023/03/31 11:43:33;;;;;;;2.75;1.30;;;16.60;99.90;;;;;;4984568;28;20923;-78
2023/03/31 11:46:37;;;;;;;5.85;1.83;;;16.50;99.90;;;;;;4967886;28;20288;-79
2023/03/31 11:49:14;;;;;;;7.32;2.38;;;16.40;99.90;;;;;;4973931;28;20209;-79
2023/03/31 11:52:08;;;;;;;5.05;2.17;;;16.40;99.90;;;;;;4974590;28;20218;-78
2023/03/31 11:54:43;;;;;;;4.70;1.50;;;16.40;99.90;;;;;;4981502;28;20309;-78
2023/03/31 11:57:17;;;;;;;4.10;1.58;;;16.20;99.90;;;;;;4965472;28;20214;-78
2023/03/31 11:59:51;;;;;;;4.45;1.85;;;15.90;99.90;;;;;;4977835;28;20296;-78
2023/03/31 12:02:34;;;;;;;4.85;1.63;;;15.90;99.90;;;;;;4977249;28;20271;-78
2023/03/31 12:05:03;;;;;;;5.45;2.00;;;15.90;99.90;;;;;;4983287;28;20238;-78
2023/03/31 12:07:38;;;;;;;6.28;2.17;;;15.70;99.90;;;;;;4980648;28;20764;-78
2023/03/31 12:10:13;;;;;;;4.82;2.22;;;15.80;99.90;;;;;;4984540;28;20175;-78
2023/03/31 12:13:02;;;;;;;3.53;1.88;;;15.50;99.90;;;;;;4983071;28;20268;-78
2023/03/31 12:15:41;;;;;;;5.88;2.00;;;15.20;99.90;;;;;;4978512;28;20215;-78
2023/03/31 12:18:15;;;;;;;6.00;2.25;;;15.10;99.90;;;;;;4957796;28;20276;-78
2023/03/31 12:20:45;;;;;;;5.55;2.60;;;15.10;99.90;;;;;;4964565;28;20237;-78
2023/03/31 12:23:25;;;;;;;5.55;2.10;;;15.20;99.90;;;;;;4988059;28;20716;-78
2023/03/31 12:26:49;;;;;;;5.22;1.85;;;15.20;99.90;;;;;;4981536;28;20217;-78
2023/03/31 12:29:33;;;;;;;8.13;2.00;;;15.20;99.90;;;;;;4960152;28;20369;-78
2023/03/31 12:32:03;;;;;;;4.60;2.17;;;15.50;99.90;;;;;;4973190;28;20622;-78
2023/03/31 12:34:31;;;;;;;5.88;2.55;;;15.60;99.90;;;;;;4966675;28;20202;-78
2023/03/31 12:37:21;;;;;;;7.38;2.65;;;15.70;99.90;;;;;;4970389;28;20198;-78
2023/03/31 12:40:11;;;;;;;5.18;2.63;;;15.80;99.90;;;;;;4971699;28;20257;-77
2023/03/31 12:42:55;;;;;;;8.52;4.80;;;15.80;99.90;;;;;;4980880;28;20217;-78
2023/03/31 12:45:27;;;;;;;7.78;2.28;;;15.60;99.90;;;;;;4983184;28;20217;-78
2023/03/31 12:47:59;;;;;;;5.88;2.22;;;15.60;99.90;;;;;;4986866;28;20210;-78
2023/03/31 12:50:37;;;;;;;5.43;2.53;;;15.60;99.90;;;;;;4985175;28;20214;-78
2023/03/31 12:53:40;;;;;;;4.80;2.10;;;15.40;99.90;;;;;;4985422;28;20627;-78
2023/03/31 12:56:06;;;;;;;4.10;2.10;;;15.20;99.90;;;;;;4978726;28;20264;-77
2023/03/31 12:58:41;;;;;;;7.38;2.42;;;14.90;99.90;;;;;;4977023;28;20178;-77
2023/03/31 13:01:17;;;;;;;4.93;2.00;;;14.40;99.90;;;;;;4981941;28;20202;-77
2023/03/31 13:03:54;;;;;;;7.38;2.58;;;14.00;99.90;;;;;;4975228;28;20578;-77
2023/03/31 13:06:28;;;;;;;3.88;2.55;;;13.80;99.90;;;;;;4974203;28;20745;-79
2023/03/31 13:08:59;;;;;;;5.43;2.65;;;13.60;99.90;;;;;;4972490;28;20653;-78
2023/03/31 13:11:37;;;;;;;5.35;2.42;;;13.70;99.90;;;;;;4971954;28;20240;-77